Time;durP1;ratioP1;P1;durP2;ratioP2;P2;SDS_P1;SDS_P2;PMS_P1;PMS_P2;Temp;Humidity;BMP_temperature;BMP_pressure;BME280_temperature;BME280_humidity;BME280_pressure;Samples;Min_cycle;Max_cycle;Signal;HPM_P1;HPM_P2
2021/06/16 00:02:15;;;;;;;4.62;4.22;;;;;;;20.16;100.00;100178.55;1691990;83;21444;-40
2021/06/16 00:04:41;;;;;;;6.03;4.90;;;;;;;20.15;100.00;100187.70;1716571;82;20976;-42
2021/06/16 00:07:08;;;;;;;5.28;4.87;;;;;;;20.14;100.00;100189.56;1716102;82;21559;-40
2021/06/16 00:09:35;;;;;;;6.08;5.33;;;;;;;20.16;100.00;100199.73;1714952;82;21028;-41
2021/06/16 00:12:02;;;;;;;5.60;4.55;;;;;;;20.21;100.00;100203.28;1713738;82;20985;-41
2021/06/16 00:14:30;;;;;;;5.37;4.87;;;;;;;20.24;100.00;100209.77;1715978;82;21020;-41
2021/06/16 00:16:57;;;;;;;6.03;4.75;;;;;;;20.27;100.00;100222.97;1717110;82;21004;-42
2021/06/16 00:19:24;;;;;;;5.00;4.50;;;;;;;20.30;100.00;100228.06;1718154;82;20960;-45
2021/06/16 00:21:52;;;;;;;5.53;5.03;;;;;;;20.32;100.00;100231.47;1716720;83;20960;-40
2021/06/16 00:24:20;;;;;;;7.62;5.22;;;;;;;20.34;100.00;100224.55;1715020;83;21043;-42
2021/06/16 00:26:47;;;;;;;6.08;5.47;;;;;;;20.30;100.00;100209.95;1716341;83;21448;-45
2021/06/16 00:29:15;;;;;;;7.70;6.15;;;;;;;20.26;100.00;100203.66;1715605;82;20984;-38
2021/06/16 00:31:42;;;;;;;6.55;6.05;;;;;;;20.16;100.00;100203.79;1716443;82;21000;-43
2021/06/16 00:34:09;;;;;;;6.22;5.60;;;;;;;20.09;100.00;100213.03;1716173;82;21031;-45
2021/06/16 00:36:35;;;;;;;5.85;5.35;;;;;;;20.08;100.00;100226.70;1713410;82;21025;-40
2021/06/16 00:39:06;;;;;;;7.92;5.83;;;;;;;20.11;100.00;100233.19;1713373;82;21021;-44
2021/06/16 00:41:33;;;;;;;6.37;5.78;;;;;;;20.14;100.00;100232.86;1711371;82;20984;-43
2021/06/16 00:44:00;;;;;;;5.70;5.20;;;;;;;20.19;100.00;100237.81;1718343;82;20968;-41
2021/06/16 00:46:28;;;;;;;5.40;4.90;;;;;;;20.23;100.00;100244.59;1714424;82;20956;-40
2021/06/16 00:48:55;;;;;;;5.47;5.00;;;;;;;20.24;100.00;100234.13;1707846;82;21497;-41
2021/06/16 00:51:21;;;;;;;5.45;4.35;;;;;;;20.23;100.00;100239.17;1712481;82;21015;-40
2021/06/16 00:53:50;;;;;;;5.47;5.03;;;;;;;20.21;100.00;100246.12;1709432;83;20977;-40
2021/06/16 00:56:17;;;;;;;5.05;4.55;;;;;;;20.24;100.00;100259.84;1658100;85;21004;-39
2021/06/16 00:58:44;;;;;;;5.35;4.85;;;;;;;20.25;100.00;100265.08;1659858;85;20969;-40
2021/06/16 01:01:24;;;;;;;5.35;4.55;;;;;;;20.23;100.00;100260.83;1659827;85;21040;-41
2021/06/16 01:04:21;;;;;;;4.97;4.57;;;;;;;20.20;100.00;100264.70;1717920;82;20968;-42
2021/06/16 01:06:51;;;;;;;5.58;5.08;;;;;;;20.21;100.00;100258.77;1719313;82;21012;-40
2021/06/16 01:09:39;;;;;;;6.40;5.17;;;;;;;20.23;100.00;100245.94;1715478;83;20944;-42
2021/06/16 01:12:24;;;;;;;4.78;4.37;;;;;;;20.24;100.00;100243.59;1715034;82;20948;-40
2021/06/16 01:14:54;;;;;;;5.12;4.37;;;;;;;20.21;100.00;100243.89;1676083;85;21000;-42
2021/06/16 01:17:27;;;;;;;4.75;4.28;;;;;;;20.17;100.00;100242.02;1654870;85;21553;-41
2021/06/16 01:20:11;;;;;;;5.37;4.85;;;;;;;20.13;100.00;100243.83;1676881;85;21804;-40
2021/06/16 01:23:21;;;;;;;5.05;4.55;;;;;;;20.13;100.00;100243.83;1663343;85;21340;-40
2021/06/16 01:26:08;;;;;;;5.95;5.37;;;;;;;20.14;100.00;100249.10;1679181;84;21779;-42
2021/06/16 01:28:41;;;;;;;5.70;4.72;;;;;;;20.17;100.00;100243.37;1674067;85;20952;-42
2021/06/16 01:31:09;;;;;;;4.92;4.42;;;;;;;20.17;100.00;100247.94;1673566;85;20976;-41
2021/06/16 01:33:36;;;;;;;5.50;5.00;;;;;;;20.14;100.00;100245.04;1676387;84;20967;-40
2021/06/16 01:36:04;;;;;;;5.30;4.75;;;;;;;20.13;100.00;100244.67;1678970;85;20980;-41
2021/06/16 01:38:30;;;;;;;4.92;4.50;;;;;;;20.10;100.00;100248.55;1680123;84;20960;-43
2021/06/16 01:40:59;;;;;;;5.58;4.95;;;;;;;20.03;100.00;100248.86;1666419;84;20968;-44
2021/06/16 01:43:25;;;;;;;4.78;4.28;;;;;;;19.96;100.00;100242.36;1679483;84;20945;-40
2021/06/16 01:45:52;;;;;;;11.65;5.83;;;;;;;19.90;100.00;100242.97;1655132;85;21019;-39
2021/06/16 01:48:19;;;;;;;5.45;4.85;;;;;;;19.88;100.00;100240.44;1625828;85;21501;-41
2021/06/16 01:50:49;;;;;;;7.30;5.53;;;;;;;19.89;100.00;100243.48;1679872;83;21098;-42
2021/06/16 01:53:16;;;;;;;5.92;5.20;;;;;;;19.94;100.00;100247.08;1711149;82;21021;-41
2021/06/16 01:55:43;;;;;;;6.53;5.92;;;;;;;19.97;100.00;100244.05;1700906;83;20975;-42
2021/06/16 01:58:09;;;;;;;5.58;5.08;;;;;;;19.98;100.00;100242.19;1714288;82;20936;-42
2021/06/16 02:00:38;;;;;;;6.20;5.08;;;;;;;19.94;100.00;100234.05;1733917;81;21031;-42
2021/06/16 02:03:05;;;;;;;5.62;5.05;;;;;;;19.90;100.00;100237.55;1723801;82;20959;-40
2021/06/16 02:05:31;;;;;;;5.33;4.55;;;;;;;19.89;100.00;100228.59;1740012;81;20976;-42
2021/06/16 02:08:15;;;;;;;5.58;5.03;;;;;;;19.92;100.00;100233.35;1736653;81;20998;-41
2021/06/16 02:10:45;;;;;;;5.55;5.00;;;;;;;19.96;100.00;100236.95;1738244;81;21011;-43
2021/06/16 02:13:12;;;;;;;6.53;4.90;;;;;;;19.99;100.00;100238.49;1736118;81;20929;-41
2021/06/16 02:16:00;;;;;;;7.47;5.55;;;;;;;19.99;100.00;100238.49;1738470;81;20932;-39
2021/06/16 02:18:46;;;;;;;6.42;5.42;;;;;;;19.99;100.00;100235.79;1737257;80;20948;-38
2021/06/16 02:21:14;;;;;;;5.60;5.08;;;;;;;19.95;100.00;100244.70;1730984;81;21426;-41
2021/06/16 02:23:42;;;;;;;5.70;5.08;;;;;;;19.95;100.00;100243.86;1735597;81;21004;-39
2021/06/16 02:26:13;;;;;;;5.90;5.40;;;;;;;19.93;100.00;100249.92;1736445;81;20944;-40
2021/06/16 02:28:40;;;;;;;;;;;;;;;19.93;100.00;100250.77;1740380;80;20964;-42
2021/06/16 02:31:06;;;;;;;6.00;5.50;;;;;;;19.93;100.00;100252.62;1739174;81;20091;-41
2021/06/16 02:33:33;;;;;;;6.40;5.80;;;;;;;19.91;100.00;100248.75;1736550;80;21415;-39
2021/06/16 02:36:00;;;;;;;7.05;6.35;;;;;;;19.89;100.00;100244.83;1741158;81;20964;-39
2021/06/16 02:38:30;;;;;;;7.37;6.00;;;;;;;19.86;100.00;100245.14;1736822;80;20992;-39
2021/06/16 02:40:58;;;;;;;6.72;6.00;;;;;;;19.81;100.00;100249.33;1740023;81;21745;-39
2021/06/16 02:43:24;;;;;;;6.22;5.62;;;;;;;19.79;100.00;100248.13;1738069;80;21347;-43
2021/06/16 02:45:51;;;;;;;7.30;6.42;;;;;;;19.78;100.00;100243.73;1738599;81;20979;-40
2021/06/16 02:48:18;;;;;;;6.78;6.03;;;;;;;19.76;100.00;100250.30;1738083;81;20956;-41
2021/06/16 02:50:46;;;;;;;8.18;6.20;;;;;;;19.73;100.00;100249.23;1744973;81;21032;-40
2021/06/16 02:53:18;;;;;;;6.58;5.87;;;;;;;19.72;100.00;100253.80;1736075;81;20989;-42
2021/06/16 02:55:48;;;;;;;7.00;6.30;;;;;;;19.75;100.00;100261.59;1739917;81;20984;-40
2021/06/16 02:58:15;;;;;;;6.58;5.87;;;;;;;19.78;100.00;100262.66;1742984;80;21483;-41
2021/06/16 03:00:45;;;;;;;6.55;5.85;;;;;;;19.79;100.00;100264.34;1728917;81;21443;-43
2021/06/16 03:03:12;;;;;;;5.80;5.30;;;;;;;19.80;100.00;100269.25;1711602;83;20992;-40
2021/06/16 03:05:38;;;;;;;10.48;6.53;;;;;;;19.80;100.00;100269.25;1712980;82;21788;-40
2021/06/16 03:08:06;;;;;;;7.72;6.37;;;;;;;19.79;100.00;100258.94;1710857;83;20956;-43
2021/06/16 03:10:32;;;;;;;6.37;5.78;;;;;;;19.80;100.00;100266.55;1714456;82;20973;-44
2021/06/16 03:12:59;;;;;;;6.22;5.72;;;;;;;19.81;100.00;100264.20;1699424;82;21466;-42
2021/06/16 03:15:26;;;;;;;7.25;6.53;;;;;;;19.81;100.00;100266.91;1716922;82;21033;-43
2021/06/16 03:17:53;;;;;;;7.03;6.42;;;;;;;19.81;100.00;100268.27;1711823;83;20948;-42
2021/06/16 03:20:21;;;;;;;7.42;6.72;;;;;;;19.82;100.00;100276.72;1708090;82;20952;-41
2021/06/16 03:22:48;;;;;;;6.62;6.00;;;;;;;19.81;100.00;100275.03;1712391;82;20972;-39
2021/06/16 03:25:15;;;;;;;6.10;5.60;;;;;;;19.82;100.00;100274.86;1716066;82;21024;-40
2021/06/16 03:27:41;;;;;;;7.45;5.85;;;;;;;19.83;100.00;100271.64;1716915;82;21437;-40
2021/06/16 03:30:08;;;;;;;6.65;6.05;;;;;;;19.84;100.00;100277.42;1716713;83;20922;-40
2021/06/16 03:32:38;;;;;;;7.15;6.30;;;;;;;19.85;100.00;100276.40;1712184;82;20964;-39
2021/06/16 03:35:05;;;;;;;8.40;6.72;;;;;;;19.87;100.00;100278.45;1708828;83;21419;-38
2021/06/16 03:37:32;;;;;;;6.33;5.72;;;;;;;19.89;100.00;100278.65;1690268;83;21449;-40
2021/06/16 03:40:00;;;;;;;6.72;5.80;;;;;;;19.95;100.00;100283.09;1709489;83;20972;-39
2021/06/16 03:42:27;;;;;;;7.42;6.22;;;;;;;19.97;100.00;100288.70;1710944;82;20928;-41
2021/06/16 03:44:55;;;;;;;6.83;6.20;;;;;;;20.00;100.00;100295.14;1711386;83;20976;-38
2021/06/16 03:47:22;;;;;;;15.45;7.87;;;;;;;20.00;100.00;100295.65;1716530;83;20945;-40
2021/06/16 03:49:48;;;;;;;7.00;6.40;;;;;;;19.97;100.00;100300.88;1711985;82;21035;-38
2021/06/16 03:52:15;;;;;;;7.00;6.30;;;;;;;19.96;100.00;100298.30;1715725;82;21059;-38
2021/06/16 03:54:42;;;;;;;6.42;5.87;;;;;;;19.95;100.00;100302.88;1716596;83;20949;-37
2021/06/16 03:57:08;;;;;;;6.67;6.08;;;;;;;19.94;100.00;100298.98;1712416;82;20968;-41
2021/06/16 03:59:35;;;;;;;8.98;6.12;;;;;;;19.96;100.00;100303.72;1714367;83;21420;-41
2021/06/16 04:02:02;;;;;;;6.28;5.67;;;;;;;19.98;100.00;100301.71;1715425;82;20961;-39
2021/06/16 04:04:29;;;;;;;6.95;6.35;;;;;;;20.02;100.00;100303.11;1710880;82;20917;-36
2021/06/16 04:06:57;;;;;;;7.22;5.97;;;;;;;20.08;100.00;100305.19;1715146;83;20980;-51
2021/06/16 04:09:24;;;;;;;6.62;5.80;;;;;;;20.11;100.00;100303.55;1717656;82;20937;-39
2021/06/16 04:11:50;;;;;;;15.15;11.35;;;;;;;20.14;100.00;100301.03;1714536;82;21919;-39
2021/06/16 04:14:17;;;;;;;8.23;7.42;;;;;;;20.16;100.00;100305.77;1639981;83;20968;-42
2021/06/16 04:16:44;;;;;;;11.90;6.25;;;;;;;20.17;100.00;100310.19;1728145;82;20949;-42
2021/06/16 04:19:11;;;;;;;7.97;6.55;;;;;;;20.14;100.00;100308.64;1713372;82;21433;-39
2021/06/16 04:21:38;;;;;;;7.62;6.83;;;;;;;20.14;100.00;100301.87;1716731;83;21011;-39
2021/06/16 04:24:05;;;;;;;7.80;7.00;;;;;;;20.16;100.00;100308.47;1715949;83;20953;-40
2021/06/16 04:26:31;;;;;;;11.05;7.22;;;;;;;20.17;100.00;100304.27;1717054;82;20960;-40
2021/06/16 04:28:58;;;;;;;7.53;6.53;;;;;;;20.19;100.00;100303.61;1717388;82;20999;-39
2021/06/16 04:31:24;;;;;;;10.45;7.75;;;;;;;20.16;100.00;100307.98;1711884;82;20968;-38
2021/06/16 04:33:51;;;;;;;7.97;7.28;;;;;;;20.12;100.00;100307.09;1715663;82;20960;-39
2021/06/16 04:36:17;;;;;;;7.95;6.83;;;;;;;20.09;100.00;100298.79;1714211;83;21463;-39
2021/06/16 04:38:44;;;;;;;7.15;6.45;;;;;;;20.07;100.00;100307.05;1711382;82;20980;-39
2021/06/16 04:41:10;;;;;;;8.25;7.42;;;;;;;20.05;100.00;100306.86;1710701;82;20976;-42
2021/06/16 04:43:38;;;;;;;7.30;6.70;;;;;;;20.05;100.00;100305.50;1709977;83;21559;-44
2021/06/16 04:46:04;;;;;;;6.28;5.67;;;;;;;20.03;100.00;100309.73;1711467;82;21484;-40
2021/06/16 04:48:31;;;;;;;7.85;7.00;;;;;;;20.03;100.00;100315.63;1714096;83;21012;-42
2021/06/16 04:50:57;;;;;;;7.17;6.47;;;;;;;20.01;100.00;100307.69;1715187;82;20984;-43
2021/06/16 04:53:24;;;;;;;8.08;7.37;;;;;;;20.01;100.00;100310.90;1709741;82;20999;-40
2021/06/16 04:55:51;;;;;;;7.70;7.08;;;;;;;20.03;100.00;100309.73;1713661;83;21494;-39
2021/06/16 04:58:17;;;;;;;7.30;6.60;;;;;;;20.03;100.00;100313.80;1715716;82;21472;-39
2021/06/16 05:00:44;;;;;;;8.10;7.30;;;;;;;20.02;100.00;100311.23;1716577;82;20980;-39
2021/06/16 05:03:11;;;;;;;8.28;7.58;;;;;;;20.02;100.00;100312.59;1714887;82;20977;-40
2021/06/16 05:05:38;;;;;;;7.35;6.65;;;;;;;20.01;100.00;100313.61;1715802;83;21499;-40
2021/06/16 05:08:06;;;;;;;9.70;7.78;;;;;;;19.95;100.00;100315.05;1714278;83;20952;-41
2021/06/16 05:10:33;;;;;;;7.83;7.12;;;;;;;19.94;100.00;100321.98;1714756;82;20968;-44
2021/06/16 05:13:00;;;;;;;7.60;6.95;;;;;;;19.89;100.00;100317.88;1713384;82;20960;-47
2021/06/16 05:15:26;;;;;;;7.33;6.62;;;;;;;19.89;100.00;100321.09;1713592;83;20999;-42
2021/06/16 05:17:53;;;;;;;7.12;6.42;;;;;;;19.89;100.00;100323.28;1713112;82;21012;-41
2021/06/16 05:20:20;;;;;;;7.62;6.87;;;;;;;19.92;100.00;100322.64;1714992;82;21025;-39
2021/06/16 05:22:50;;;;;;;7.62;7.03;;;;;;;19.93;100.00;100324.33;1715266;82;20943;-39
2021/06/16 05:25:23;;;;;;;7.60;6.90;;;;;;;19.95;100.00;100333.14;1716434;82;21362;-39
2021/06/16 05:27:53;;;;;;;7.75;7.05;;;;;;;19.97;100.00;100327.08;1715489;82;20960;-44
2021/06/16 05:30:20;;;;;;;7.45;6.35;;;;;;;19.99;100.00;100328.63;1716300;82;20996;-44
2021/06/16 05:32:47;;;;;;;8.00;7.20;;;;;;;20.01;100.00;100325.27;1713079;82;21507;-41
2021/06/16 05:35:14;;;;;;;7.35;6.75;;;;;;;20.03;100.00;100325.97;1717903;82;21036;-43
2021/06/16 05:37:44;;;;;;;7.45;6.80;;;;;;;20.03;100.00;100328.68;1715104;82;21881;-40
2021/06/16 05:40:12;;;;;;;8.48;6.95;;;;;;;20.03;100.00;100325.09;1712549;82;20952;-44
2021/06/16 05:42:38;;;;;;;9.30;7.37;;;;;;;20.03;100.00;100336.80;1711871;82;20976;-45
2021/06/16 05:45:06;;;;;;;8.78;7.17;;;;;;;20.06;100.00;100339.19;1715128;83;20982;-42
2021/06/16 05:47:33;;;;;;;7.85;7.08;;;;;;;20.05;100.00;100336.12;1715016;82;21503;-46
2021/06/16 05:50:00;;;;;;;8.30;7.50;;;;;;;20.03;100.00;100339.98;1714257;83;21036;-39
2021/06/16 05:52:26;;;;;;;8.55;7.17;;;;;;;20.03;100.00;100350.80;1714208;82;20965;-38
2021/06/16 05:54:54;;;;;;;8.98;6.35;;;;;;;20.04;100.00;100353.88;1715878;83;20952;-38
2021/06/16 05:57:20;;;;;;;7.62;6.53;;;;;;;20.07;100.00;100357.11;1714854;82;20980;-38
2021/06/16 05:59:47;;;;;;;12.13;7.80;;;;;;;20.12;100.00;100353.11;1718952;82;21542;-40
2021/06/16 06:02:14;;;;;;;8.83;7.65;;;;;;;20.16;100.00;100362.60;1731603;80;20953;-40
2021/06/16 06:04:40;;;;;;;7.47;6.78;;;;;;;20.18;100.00;100360.59;1742369;80;20960;-45
2021/06/16 06:07:07;;;;;;;7.08;6.42;;;;;;;20.25;100.00;100360.33;1741463;80;21011;-43
2021/06/16 06:09:33;;;;;;;6.95;6.33;;;;;;;20.30;100.00;100355.30;1737829;81;20988;-46
2021/06/16 06:12:00;;;;;;;7.50;6.80;;;;;;;20.35;100.00;100357.03;1738182;80;21453;-44
2021/06/16 06:14:27;;;;;;;8.03;7.22;;;;;;;20.42;100.00;100358.11;1740921;81;20956;-45
2021/06/16 06:16:53;;;;;;;7.60;6.90;;;;;;;20.47;100.00;100357.65;1736558;81;20988;-44
2021/06/16 06:19:20;;;;;;;7.80;6.80;;;;;;;20.50;100.00;100360.88;1741297;81;20995;-48
2021/06/16 06:21:46;;;;;;;7.05;6.40;;;;;;;20.57;100.00;100363.86;1740887;81;20972;-44
2021/06/16 06:24:13;;;;;;;7.28;6.35;;;;;;;20.63;100.00;100364.56;1738517;81;21000;-42
2021/06/16 06:26:39;;;;;;;8.35;6.47;;;;;;;20.68;100.00;100369.01;1738139;81;21031;-43
2021/06/16 06:29:06;;;;;;;7.50;6.80;;;;;;;20.73;100.00;100365.83;1739951;81;20991;-44
2021/06/16 06:31:33;;;;;;;7.10;5.87;;;;;;;20.79;100.00;100362.50;1735357;80;20987;-42
2021/06/16 06:33:59;;;;;;;6.97;6.28;;;;;;;20.85;100.00;100359.14;1737599;81;21015;-42
2021/06/16 06:36:27;;;;;;;7.87;6.50;;;;;;;20.88;100.00;100357.47;1736534;81;20988;-43
2021/06/16 06:38:54;;;;;;;7.35;6.55;;;;;;;20.95;100.00;100361.24;1735721;80;21010;-42
2021/06/16 06:41:20;;;;;;;7.12;6.47;;;;;;;21.02;100.00;100368.75;1737438;81;21004;-42
2021/06/16 06:43:47;;;;;;;8.38;7.42;;;;;;;21.04;100.00;100358.58;1737009;81;20969;-42
2021/06/16 06:46:14;;;;;;;8.20;6.28;;;;;;;21.05;100.00;100358.43;1738959;80;21000;-42
2021/06/16 06:48:41;;;;;;;8.23;6.22;;;;;;;21.06;100.00;100361.47;1734873;81;21019;-42
2021/06/16 06:51:09;;;;;;;7.45;6.75;;;;;;;21.08;100.00;100359.97;1737662;81;21016;-42
2021/06/16 06:53:35;;;;;;;8.20;6.90;;;;;;;21.10;100.00;100360.15;1736045;80;21658;-41
2021/06/16 06:56:03;;;;;;;7.40;6.70;;;;;;;21.12;100.00;100360.00;1740919;81;20988;-43
2021/06/16 06:58:29;;;;;;;7.45;6.78;;;;;;;21.15;100.00;100359.67;1739545;81;21003;-44
2021/06/16 07:00:56;;;;;;;7.28;6.58;;;;;;;21.18;100.00;100362.89;1740084;81;20921;-42
2021/06/16 07:03:23;;;;;;;7.90;7.10;;;;;;;21.21;100.00;100361.72;1732992;81;20980;-44
2021/06/16 07:05:49;;;;;;;8.78;7.87;;;;;;;21.25;100.00;100368.53;1739223;81;21842;-40
2021/06/16 07:08:16;;;;;;;9.55;7.05;;;;;;;21.28;100.00;100369.56;1728145;81;21547;-42
2021/06/16 07:10:42;;;;;;;9.10;6.25;;;;;;;21.33;100.00;100367.21;1737317;82;20965;-41
2021/06/16 07:13:09;;;;;;;6.83;6.20;;;;;;;21.38;100.00;100364.89;1740297;80;20937;-41
2021/06/16 07:15:38;;;;;;;5.85;5.30;;;;;;;21.42;100.00;100364.56;1743261;81;20972;-43
2021/06/16 07:18:05;;;;;;;6.10;4.58;;;;;;;21.44;100.00;100366.09;1741690;80;20952;-42
2021/06/16 07:20:31;;;;;;;5.00;4.60;;;;;;;21.47;100.00;100369.87;1741098;81;20955;-45
2021/06/16 07:23:00;;;;;;;6.85;5.55;;;;;;;21.50;100.00;100372.24;1739578;80;20960;-41
2021/06/16 07:25:32;;;;;;;;;;;;;;;21.49;99.54;100363.75;1742281;81;21515;-45
2021/06/16 07:28:04;;;;;;;7.37;5.53;;;;;;;21.50;98.70;100369.53;1736987;80;20105;-43
2021/06/16 07:30:31;;;;;;;6.10;3.98;;;;;;;21.48;99.09;100373.42;1744353;80;20976;-44
2021/06/16 07:32:58;;;;;;;6.97;5.30;;;;;;;21.49;97.94;100383.24;1738621;80;20983;-43
2021/06/16 07:35:25;;;;;;;5.65;4.33;;;;;;;21.48;97.72;100376.98;1746235;81;20952;-51
2021/06/16 07:37:51;;;;;;;4.60;4.20;;;;;;;21.48;96.90;100374.78;1736007;81;21002;-53
2021/06/16 07:40:18;;;;;;;6.33;5.72;;;;;;;21.46;95.23;100375.44;1742352;81;21768;-55
2021/06/16 07:42:45;;;;;;;9.45;5.12;;;;;;;21.44;94.82;100377.46;1735785;80;20974;-55
2021/06/16 07:45:12;;;;;;;5.03;3.80;;;;;;;21.45;95.85;100382.73;1740260;81;21006;-53
2021/06/16 07:47:39;;;;;;;7.65;4.12;;;;;;;21.48;95.95;100381.05;1739835;81;20976;-45
2021/06/16 07:50:06;;;;;;;7.67;4.53;;;;;;;21.49;94.87;100377.31;1740707;81;21641;-42
2021/06/16 07:52:33;;;;;;;6.17;4.62;;;;;;;21.50;94.66;100383.61;1731268;81;20957;-48
2021/06/16 07:54:59;;;;;;;5.72;4.37;;;;;;;21.52;94.36;100378.84;1734466;81;20976;-48
2021/06/16 07:57:26;;;;;;;4.72;4.33;;;;;;;21.53;95.00;100381.41;1734190;80;20969;-45
2021/06/16 07:59:53;;;;;;;5.35;4.85;;;;;;;21.58;97.24;100380.92;1736465;81;20952;-45
2021/06/16 08:02:19;;;;;;;4.60;4.20;;;;;;;21.64;99.43;100389.75;1740380;80;21451;-50
2021/06/16 08:04:46;;;;;;;4.75;4.17;;;;;;;21.69;100.00;100388.75;1736919;81;20940;-45
2021/06/16 08:07:13;;;;;;;5.15;4.65;;;;;;;21.75;100.00;100386.75;1737190;81;20971;-44
2021/06/16 08:09:43;;;;;;;4.42;4.03;;;;;;;21.80;100.00;100380.33;1738330;81;20984;-43
2021/06/16 08:12:10;;;;;;;;;;;;;;;21.87;100.00;100375.06;1744468;80;20969;-44
2021/06/16 08:14:37;;;;;;;3.92;3.62;;;;;;;21.93;99.45;100370.86;1734049;81;20138;-43
2021/06/16 08:17:05;;;;;;;4.55;4.12;;;;;;;21.99;98.06;100375.61;1738947;81;20967;-41
2021/06/16 08:19:33;;;;;;;4.50;3.90;;;;;;;22.03;96.48;100372.41;1744941;81;20937;-43
2021/06/16 08:21:59;;;;;;;5.53;4.15;;;;;;;22.09;96.24;100374.11;1739271;81;20984;-41
2021/06/16 08:24:27;;;;;;;7.33;4.75;;;;;;;22.15;96.23;100373.43;1738410;81;21020;-41
2021/06/16 08:26:54;;;;;;;5.78;4.60;;;;;;;22.17;94.68;100370.89;1735786;80;20944;-43
2021/06/16 08:29:21;;;;;;;5.33;4.78;;;;;;;22.20;93.59;100367.89;1739909;81;21497;-49
2021/06/16 08:31:47;;;;;;;9.05;4.45;;;;;;;22.24;94.61;100374.67;1736070;80;21032;-39
2021/06/16 08:34:14;;;;;;;5.08;4.58;;;;;;;22.29;94.87;100376.04;1740928;81;21023;-46
2021/06/16 08:36:41;;;;;;;5.12;4.47;;;;;;;22.34;94.85;100379.09;1745107;81;20937;-45
2021/06/16 08:39:08;;;;;;;16.32;8.00;;;;;;;22.38;94.22;100376.40;1707267;82;21031;-48
2021/06/16 08:41:35;;;;;;;10.03;6.25;;;;;;;22.37;91.74;100375.52;1740082;81;21344;-43
2021/06/16 08:44:01;;;;;;;5.40;4.90;;;;;;;22.38;91.21;100370.45;1744166;81;20928;-44
2021/06/16 08:46:28;;;;;;;6.42;4.37;;;;;;;22.40;91.78;100377.92;1749852;81;21491;-43
2021/06/16 08:48:55;;;;;;;13.32;8.15;;;;;;;22.45;92.95;100374.67;1717915;81;20940;-41
2021/06/16 08:51:22;;;;;;;7.42;6.70;;;;;;;22.49;92.66;100378.77;1738161;80;21004;-42
2021/06/16 08:53:49;;;;;;;7.20;5.58;;;;;;;22.53;91.72;100377.90;1742140;81;20952;-45
2021/06/16 08:56:15;;;;;;;9.35;6.12;;;;;;;22.60;92.16;100382.52;1739145;81;20972;-51
2021/06/16 08:58:42;;;;;;;6.30;5.08;;;;;;;22.65;91.55;100384.22;1740145;82;20964;-49
2021/06/16 09:01:10;;;;;;;5.85;5.22;;;;;;;22.73;92.79;100386.56;1739856;80;20957;-49
2021/06/16 09:03:39;;;;;;;6.05;4.85;;;;;;;22.77;92.24;100381.98;1743813;80;21492;-50
2021/06/16 09:06:12;;;;;;;4.47;4.05;;;;;;;22.84;92.24;100392.50;1734376;81;20951;-50
2021/06/16 09:09:00;;;;;;;6.92;4.80;;;;;;;22.89;92.91;100392.84;1719487;82;21401;-49
2021/06/16 09:11:30;;;;;;;5.28;4.50;;;;;;;22.95;91.99;100392.66;1718854;82;21531;-47
2021/06/16 09:14:12;;;;;;;6.58;5.05;;;;;;;22.99;91.98;100398.12;1711729;82;20984;-46
2021/06/16 09:16:39;;;;;;;5.35;4.85;;;;;;;23.03;91.80;100394.05;1711761;83;20963;-42
2021/06/16 09:19:22;;;;;;;6.10;4.72;;;;;;;23.05;90.35;100391.98;1720649;82;21020;-42
2021/06/16 09:21:51;;;;;;;4.40;4.00;;;;;;;23.07;91.51;100388.59;1720507;82;20972;-43
2021/06/16 09:24:18;;;;;;;7.22;4.65;;;;;;;23.09;90.75;100391.15;1718602;82;20960;-41
2021/06/16 09:26:45;;;;;;;4.40;3.85;;;;;;;23.10;89.48;100375.16;1722414;82;20957;-42
2021/06/16 09:29:12;;;;;;;5.33;4.83;;;;;;;23.11;90.04;100376.88;1686233;83;20972;-41
2021/06/16 09:31:41;;;;;;;4.30;3.47;;;;;;;23.15;86.97;100377.36;1664752;86;20973;-44
2021/06/16 09:34:12;;;;;;;4.30;3.35;;;;;;;23.19;82.49;100368.69;1659880;86;20989;-44
2021/06/16 09:36:56;;;;;;;3.85;3.02;;;;;;;23.24;78.70;100366.29;1655540;85;21006;-45
2021/06/16 09:39:27;;;;;;;5.03;3.37;;;;;;;23.32;78.18;100366.77;1662784;86;20961;-44
2021/06/16 09:42:13;;;;;;;3.92;2.70;;;;;;;23.40;73.87;100370.81;1655440;85;21006;-42
2021/06/16 09:44:48;;;;;;;3.92;2.98;;;;;;;23.49;73.57;100368.41;1662474;86;20977;-43
2021/06/16 09:47:18;;;;;;;3.35;2.12;;;;;;;23.54;64.49;100362.45;1662805;85;21516;-45
2021/06/16 09:49:53;;;;;;;4.97;1.90;;;;;;;23.61;63.36;100360.72;1662501;86;21459;-45
2021/06/16 09:52:39;;;;;;;5.35;1.62;;;;;;;23.67;65.63;100359.16;1684546;84;21022;-44
2021/06/16 09:55:25;;;;;;;3.47;1.67;;;;;;;23.71;64.31;100361.34;1663832;86;20998;-43
2021/06/16 09:58:11;;;;;;;5.62;1.85;;;;;;;23.81;63.52;100355.69;1659404;85;21023;-43
2021/06/16 10:00:49;;;;;;;3.37;2.40;;;;;;;23.91;62.43;100352.25;1679005;85;20999;-43
2021/06/16 10:03:23;;;;;;;3.70;1.75;;;;;;;24.04;60.09;100353.02;1653087;85;20979;-48
2021/06/16 10:06:16;;;;;;;3.70;1.55;;;;;;;24.17;51.80;100345.61;1659401;85;20955;-42
2021/06/16 10:08:46;;;;;;;2.37;1.70;;;;;;;24.29;54.56;100347.38;1745386;80;20936;-41
2021/06/16 10:11:18;;;;;;;2.90;1.40;;;;;;;24.39;57.38;100342.03;1744530;81;20968;-42
2021/06/16 10:13:46;;;;;;;3.27;2.35;;;;;;;24.45;54.77;100347.78;1744048;81;20960;-43
2021/06/16 10:16:14;;;;;;;4.28;2.15;;;;;;;24.49;56.84;100349.11;1742802;81;21785;-40
2021/06/16 10:18:42;;;;;;;3.02;2.25;;;;;;;24.50;58.71;100348.10;1743064;81;20972;-42
2021/06/16 10:21:11;;;;;;;5.08;1.92;;;;;;;24.50;59.68;100346.22;1739620;80;21008;-40
2021/06/16 10:23:38;;;;;;;2.50;2.00;;;;;;;24.54;57.45;100342.08;1739268;81;20964;-40
2021/06/16 10:26:16;;;;;;;3.05;1.80;;;;;;;24.55;56.53;100342.42;1745876;81;20995;-41
2021/06/16 10:28:53;;;;;;;4.25;1.87;;;;;;;24.60;54.98;100341.88;1742583;81;21447;-39
2021/06/16 10:31:20;;;;;;;2.02;1.60;;;;;;;24.65;56.90;100338.09;1744552;80;21471;-40
2021/06/16 10:33:56;;;;;;;2.47;1.95;;;;;;;24.72;57.01;100332.72;1737502;81;20968;-39
2021/06/16 10:36:23;;;;;;;3.10;1.45;;;;;;;24.80;56.78;100337.59;1744229;81;20958;-41
2021/06/16 10:39:07;;;;;;;4.03;1.77;;;;;;;24.89;53.38;100330.16;1741390;81;20988;-40
2021/06/16 10:41:53;;;;;;;3.30;1.45;;;;;;;24.99;49.82;100332.62;1742803;80;20925;-39
2021/06/16 10:44:26;;;;;;;1.67;1.27;;;;;;;25.08;48.84;100330.14;1742632;81;20984;-40
2021/06/16 10:47:08;;;;;;;2.58;1.40;;;;;;;25.14;47.27;100338.92;1741194;80;20924;-40
2021/06/16 10:49:47;;;;;;;2.65;1.32;;;;;;;25.18;47.90;100345.73;1739267;80;21401;-41
2021/06/16 10:52:15;;;;;;;2.55;1.00;;;;;;;25.18;45.55;100343.01;1740609;81;20944;-40
2021/06/16 10:55:04;;;;;;;2.62;1.35;;;;;;;25.18;44.86;100335.35;1738583;81;20952;-40
2021/06/16 10:57:32;;;;;;;2.15;1.45;;;;;;;25.19;46.46;100335.66;1737871;81;20945;-40
2021/06/16 11:00:01;;;;;;;1.50;1.05;;;;;;;25.21;47.55;100334.97;1741436;80;20932;-39
2021/06/16 11:02:34;;;;;;;2.92;1.95;;;;;;;25.22;47.24;100341.61;1740805;80;21476;-40
2021/06/16 11:05:28;;;;;;;2.85;2.35;;;;;;;25.22;49.90;100336.16;1736272;81;20956;-49
2021/06/16 11:07:56;;;;;;;2.75;1.75;;;;;;;25.20;49.10;100335.98;1718441;81;20985;-40
2021/06/16 11:10:24;;;;;;;2.62;1.60;;;;;;;25.17;48.36;100333.11;1713267;82;21031;-40
2021/06/16 11:12:53;;;;;;;1.75;1.27;;;;;;;25.18;50.19;100332.63;1676362;83;21027;-45
2021/06/16 11:15:30;;;;;;;3.10;2.10;;;;;;;25.23;51.11;100327.45;1715275;83;21875;-39
2021/06/16 11:18:00;;;;;;;2.25;1.35;;;;;;;25.29;50.77;100326.67;1715945;82;20985;-38
2021/06/16 11:20:30;;;;;;;2.80;1.47;;;;;;;25.34;48.27;100325.59;1711848;82;20953;-40
2021/06/16 11:23:01;;;;;;;4.75;2.65;;;;;;;25.30;47.92;100328.39;1711396;83;21488;-42
2021/06/16 11:25:37;;;;;;;2.87;1.65;;;;;;;25.24;49.20;100335.42;1717849;83;20964;-40
2021/06/16 11:28:16;;;;;;;3.80;1.72;;;;;;;25.18;48.46;100337.55;1712470;82;20978;-41
2021/06/16 11:31:05;;;;;;;1.57;1.47;;;;;;;25.17;51.49;100335.84;1708147;83;20961;-39